Time;durP1;ratioP1;P1;durP2;ratioP2;P2;SDS_P1;SDS_P2;PMS_P1;PMS_P2;Temp;Humidity;BMP_temperature;BMP_pressure;BME280_temperature;BME280_humidity;BME280_pressure;Samples;Min_cycle;Max_cycle;Signal;HPM_P1;HPM_P2
2023/06/14 00:00:34;;;;;;;2.20;1.70;;;16.30;99.90;;;;;;5007385;28;21109;-62
2023/06/14 00:03:01;;;;;;;3.80;1.77;;;16.30;99.90;;;;;;4993523;28;20687;-62
2023/06/14 00:05:29;;;;;;;2.20;1.70;;;16.40;99.90;;;;;;4978147;28;20715;-62
2023/06/14 00:07:56;;;;;;;3.75;1.70;;;16.20;99.90;;;;;;4995835;28;20655;-62
2023/06/14 00:10:23;;;;;;;3.88;1.83;;;16.20;99.90;;;;;;5008441;28;20358;-62
2023/06/14 00:12:50;;;;;;;4.43;1.90;;;16.10;99.90;;;;;;5010293;28;20218;-62
2023/06/14 00:15:16;;;;;;;4.15;1.70;;;15.30;99.90;;;;;;4992342;28;20202;-63
2023/06/14 00:17:47;;;;;;;2.13;1.73;;;16.10;99.90;;;;;;4988125;28;20214;-62
2023/06/14 00:20:14;;;;;;;2.28;1.85;;;16.00;99.90;;;;;;5005372;28;20214;-62
2023/06/14 00:22:42;;;;;;;2.17;1.60;;;16.00;99.90;;;;;;4965956;28;20214;-62
2023/06/14 00:25:09;;;;;;;5.05;1.75;;;16.20;99.90;;;;;;5005614;28;20210;-62
2023/06/14 00:27:36;;;;;;;6.22;1.92;;;16.20;99.90;;;;;;5005378;28;20293;-62
2023/06/14 00:30:02;;;;;;;5.25;2.10;;;16.10;99.90;;;;;;4996696;28;20213;-62
2023/06/14 00:32:29;;;;;;;3.47;1.80;;;16.10;99.90;;;;;;4992560;28;20202;-62
2023/06/14 00:34:56;;;;;;;3.03;2.03;;;15.90;99.90;;;;;;4993750;28;20245;-62
2023/06/14 00:37:23;;;;;;;3.40;2.15;;;15.90;99.90;;;;;;4972474;28;20347;-63
2023/06/14 00:39:51;;;;;;;3.22;1.77;;;16.00;99.90;;;;;;4994861;28;20202;-63
2023/06/14 00:42:25;;;;;;;3.15;1.85;;;16.10;99.90;;;;;;5005423;28;20850;-62
2023/06/14 00:44:52;;;;;;;2.40;1.77;;;15.90;99.90;;;;;;5007934;28;20249;-62
2023/06/14 00:47:20;;;;;;;5.88;2.25;;;15.90;99.90;;;;;;4984613;28;20205;-62
2023/06/14 00:49:47;;;;;;;3.25;2.08;;;15.80;99.90;;;;;;4994149;28;20203;-62
2023/06/14 00:52:14;;;;;;;8.63;2.00;;;15.90;99.90;;;;;;4968866;28;20813;-62
2023/06/14 00:54:41;;;;;;;5.32;1.88;;;16.80;99.90;;;;;;4988466;28;20226;-62
2023/06/14 00:57:11;;;;;;;7.15;2.10;;;16.00;99.90;;;;;;5005706;28;20202;-62
2023/06/14 00:59:42;;;;;;;2.53;2.00;;;16.00;99.90;;;;;;4994928;28;20241;-63
2023/06/14 01:02:09;;;;;;;8.77;2.60;;;15.90;99.90;;;;;;4990718;28;20765;-63
2023/06/14 01:04:36;;;;;;;3.05;1.75;;;15.80;99.90;;;;;;4995797;28;20210;-63
2023/06/14 01:07:13;;;;;;;4.25;2.03;;;15.70;99.90;;;;;;4990388;28;20230;-62
2023/06/14 01:09:55;;;;;;;3.97;2.28;;;15.80;99.90;;;;;;4956058;28;20211;-62
2023/06/14 01:12:32;;;;;;;2.40;2.03;;;15.80;99.90;;;;;;5005373;28;20213;-62
2023/06/14 01:15:01;;;;;;;3.47;1.65;;;15.80;99.90;;;;;;4994131;28;20604;-62
2023/06/14 01:17:31;;;;;;;4.60;2.00;;;15.80;99.90;;;;;;4995476;28;20198;-63
2023/06/14 01:19:59;;;;;;;5.63;2.20;;;15.70;99.90;;;;;;4997030;28;20853;-62
2023/06/14 01:22:27;;;;;;;2.90;2.00;;;15.70;99.90;;;;;;4992542;28;20203;-62
2023/06/14 01:24:56;;;;;;;3.58;2.05;;;15.60;99.90;;;;;;4966515;28;20216;-63
2023/06/14 01:27:28;;;;;;;2.50;1.92;;;15.60;99.90;;;;;;5004553;28;20218;-63
2023/06/14 01:29:57;;;;;;;3.00;2.40;;;15.60;99.90;;;;;;4998774;28;20204;-63
2023/06/14 01:32:25;;;;;;;3.97;2.03;;;15.50;99.90;;;;;;4994839;28;20260;-63
2023/06/14 01:34:52;;;;;;;6.80;2.28;;;15.50;99.90;;;;;;4982706;28;20222;-62
2023/06/14 01:37:20;;;;;;;4.55;2.20;;;15.40;99.90;;;;;;4992023;28;20221;-62
2023/06/14 01:39:49;;;;;;;5.20;2.40;;;15.40;99.90;;;;;;4981044;28;20226;-63
2023/06/14 01:42:18;;;;;;;3.72;2.00;;;15.40;99.90;;;;;;5003531;28;20203;-62
2023/06/14 01:44:45;;;;;;;2.67;2.00;;;15.40;99.90;;;;;;5003378;28;20198;-62
2023/06/14 01:47:13;;;;;;;8.88;2.08;;;15.30;99.90;;;;;;4995969;28;20194;-62
2023/06/14 01:49:40;;;;;;;6.53;2.10;;;15.20;99.90;;;;;;4995201;28;20218;-62
2023/06/14 01:52:09;;;;;;;4.78;2.00;;;15.20;99.90;;;;;;4989591;28;20210;-62
2023/06/14 01:54:41;;;;;;;3.13;1.98;;;14.90;99.90;;;;;;5007557;28;20673;-62
2023/06/14 01:57:08;;;;;;;6.72;2.55;;;15.10;99.90;;;;;;4957903;28;20815;-63
2023/06/14 01:59:36;;;;;;;4.93;2.78;;;15.10;99.90;;;;;;5003399;28;20204;-63
2023/06/14 02:02:03;;;;;;;2.80;2.20;;;15.00;99.90;;;;;;4996928;28;20530;-62
2023/06/14 02:04:30;;;;;;;4.63;2.53;;;15.10;99.90;;;;;;4997379;28;20206;-62
2023/06/14 02:06:57;;;;;;;4.28;1.98;;;15.00;99.90;;;;;;4980396;28;20854;-62
2023/06/14 02:09:24;;;;;;;3.78;2.33;;;15.00;99.90;;;;;;5006404;28;20198;-63
2023/06/14 02:11:51;;;;;;;5.65;2.15;;;15.00;99.90;;;;;;4972726;28;20272;-63
2023/06/14 02:14:18;;;;;;;3.17;2.28;;;15.00;99.90;;;;;;5001186;28;20221;-62
2023/06/14 02:16:48;;;;;;;4.28;2.15;;;15.10;99.90;;;;;;5010127;28;20224;-63
2023/06/14 02:19:16;;;;;;;3.05;2.17;;;15.00;99.90;;;;;;4982560;28;20493;-63
2023/06/14 02:21:42;;;;;;;3.75;2.20;;;15.10;99.90;;;;;;4978836;28;20226;-63
2023/06/14 02:24:09;;;;;;;2.50;2.08;;;15.10;99.90;;;;;;4991635;28;20217;-62
2023/06/14 02:26:37;;;;;;;2.67;2.22;;;14.90;99.90;;;;;;4996758;28;20326;-62
2023/06/14 02:29:05;;;;;;;5.05;2.45;;;14.90;99.90;;;;;;4971555;28;20300;-63
2023/06/14 02:31:32;;;;;;;2.97;2.10;;;14.90;99.90;;;;;;5003468;28;20206;-62
2023/06/14 02:34:00;;;;;;;3.58;2.28;;;14.80;99.90;;;;;;4987739;28;20716;-62
2023/06/14 02:36:29;;;;;;;5.80;2.40;;;14.80;99.90;;;;;;4994589;28;20206;-62
2023/06/14 02:38:57;;;;;;;3.42;2.13;;;14.80;99.90;;;;;;4993812;28;20236;-62
2023/06/14 02:41:24;;;;;;;3.50;2.38;;;14.90;99.90;;;;;;5005381;28;20592;-62
2023/06/14 02:43:51;;;;;;;2.35;2.15;;;14.90;99.90;;;;;;4966086;28;20869;-62
2023/06/14 02:46:17;;;;;;;5.32;2.42;;;14.90;99.90;;;;;;5005701;28;20210;-62
2023/06/14 02:48:45;;;;;;;2.55;2.00;;;14.90;99.90;;;;;;4998309;28;20367;-62
2023/06/14 02:51:13;;;;;;;8.05;2.40;;;14.80;99.90;;;;;;4984978;28;20737;-62
2023/06/14 02:53:40;;;;;;;4.82;1.85;;;14.70;99.90;;;;;;4989285;28;20202;-63
2023/06/14 02:56:07;;;;;;;3.15;2.22;;;14.70;99.90;;;;;;5007385;28;20610;-63
2023/06/14 02:58:34;;;;;;;4.15;2.50;;;14.70;99.90;;;;;;4963426;28;20729;-63
2023/06/14 03:01:03;;;;;;;4.82;2.58;;;14.70;99.90;;;;;;5008644;28;20237;-62
2023/06/14 03:03:30;;;;;;;4.38;2.65;;;14.70;99.90;;;;;;5001488;28;20214;-62
2023/06/14 03:05:57;;;;;;;4.63;2.70;;;14.70;99.90;;;;;;4995440;28;20209;-62
2023/06/14 03:08:27;;;;;;;2.95;2.40;;;14.60;99.90;;;;;;4991316;28;20222;-62
2023/06/14 03:10:56;;;;;;;4.22;2.40;;;14.60;99.90;;;;;;5003509;28;20617;-62
2023/06/14 03:13:23;;;;;;;7.85;2.53;;;14.60;99.90;;;;;;5003561;28;20597;-63
2023/06/14 03:15:50;;;;;;;4.63;2.33;;;14.70;99.90;;;;;;4976304;28;20475;-63
2023/06/14 03:18:17;;;;;;;3.53;2.20;;;14.60;99.90;;;;;;5011509;28;20199;-62
2023/06/14 03:20:45;;;;;;;4.18;2.83;;;14.60;99.90;;;;;;4990720;28;20222;-62
2023/06/14 03:23:12;;;;;;;4.30;2.47;;;14.50;99.90;;;;;;4999016;28;20352;-62
2023/06/14 03:25:42;;;;;;;5.30;2.40;;;14.60;99.90;;;;;;4997323;28;20210;-63
2023/06/14 03:28:08;;;;;;;2.45;2.15;;;14.70;99.90;;;;;;4999433;28;20899;-62
2023/06/14 03:30:35;;;;;;;4.22;2.20;;;14.60;99.90;;;;;;4976728;28;21319;-63
2023/06/14 03:33:02;;;;;;;4.25;2.30;;;14.60;99.90;;;;;;5009161;28;20562;-63
2023/06/14 03:35:29;;;;;;;4.93;2.97;;;14.70;99.90;;;;;;5005824;28;20234;-63
2023/06/14 03:37:56;;;;;;;2.85;2.10;;;14.70;99.90;;;;;;4985554;28;20195;-63
2023/06/14 03:40:26;;;;;;;6.45;2.75;;;14.80;99.90;;;;;;5005954;28;20202;-62
2023/06/14 03:42:54;;;;;;;7.82;2.72;;;14.80;99.90;;;;;;5002193;28;20930;-62
2023/06/14 03:45:21;;;;;;;4.40;2.38;;;14.90;99.90;;;;;;4997412;28;20202;-62
2023/06/14 03:47:48;;;;;;;2.88;2.50;;;14.80;99.90;;;;;;4983956;28;20227;-62
2023/06/14 03:50:15;;;;;;;2.88;2.47;;;14.80;99.90;;;;;;5011487;28;20194;-63
2023/06/14 03:52:43;;;;;;;4.78;2.30;;;14.80;99.90;;;;;;4991956;28;20210;-63
2023/06/14 03:55:12;;;;;;;5.22;3.10;;;14.80;99.90;;;;;;4996863;28;20570;-62
2023/06/14 03:57:40;;;;;;;3.05;2.50;;;14.90;99.90;;;;;;4999613;28;20260;-62
2023/06/14 04:00:11;;;;;;;5.13;2.47;;;15.00;99.90;;;;;;4999292;28;20987;-62
2023/06/14 04:02:37;;;;;;;4.10;2.30;;;15.00;99.90;;;;;;4992971;28;20593;-62
2023/06/14 04:05:05;;;;;;;3.03;2.55;;;15.00;99.90;;;;;;5003266;28;20698;-63
2023/06/14 04:07:32;;;;;;;8.25;2.55;;;15.00;99.90;;;;;;4999084;28;20237;-62
2023/06/14 04:09:58;;;;;;;5.65;2.65;;;15.00;99.90;;;;;;4980070;28;20575;-63
2023/06/14 04:12:25;;;;;;;3.67;2.60;;;15.00;99.90;;;;;;4993616;28;21233;-62
2023/06/14 04:14:52;;;;;;;3.70;2.50;;;15.00;99.90;;;;;;5004322;28;20236;-62
2023/06/14 04:17:20;;;;;;;5.28;2.20;;;15.00;99.90;;;;;;4976797;28;20489;-63
2023/06/14 04:19:47;;;;;;;4.80;2.42;;;15.10;99.90;;;;;;5011135;28;20224;-63
2023/06/14 04:22:14;;;;;;;2.88;2.47;;;15.20;99.90;;;;;;5007243;28;20240;-63
2023/06/14 04:24:42;;;;;;;5.15;2.78;;;15.20;99.90;;;;;;4999982;28;20680;-63
2023/06/14 04:27:09;;;;;;;3.53;2.58;;;15.10;99.90;;;;;;4999396;28;20236;-63
2023/06/14 04:29:36;;;;;;;3.35;2.72;;;15.10;99.90;;;;;;4996159;28;20671;-63
2023/06/14 04:32:04;;;;;;;5.07;2.72;;;15.10;99.90;;;;;;4998613;28;20194;-62
2023/06/14 04:34:33;;;;;;;3.83;2.50;;;15.10;99.90;;;;;;4999739;28;20743;-63
2023/06/14 04:37:01;;;;;;;5.40;2.28;;;16.10;99.90;;;;;;4999539;28;20248;-62
2023/06/14 04:39:28;;;;;;;5.20;2.45;;;15.10;99.90;;;;;;5007760;28;20209;-62
2023/06/14 04:41:56;;;;;;;6.97;2.85;;;15.10;99.90;;;;;;4997696;28;20268;-63
2023/06/14 04:44:29;;;;;;;3.80;2.67;;;15.30;99.90;;;;;;4989364;28;20899;-62
2023/06/14 04:46:58;;;;;;;3.38;2.30;;;15.40;99.90;;;;;;4994089;28;20216;-63
2023/06/14 04:49:27;;;;;;;3.22;2.40;;;15.50;99.90;;;;;;4982868;28;20987;-63
2023/06/14 04:51:59;;;;;;;5.10;2.78;;;15.50;99.90;;;;;;5008573;28;20229;-62
2023/06/14 04:54:25;;;;;;;3.50;2.45;;;15.40;99.90;;;;;;4985497;28;20261;-63
2023/06/14 04:56:53;;;;;;;3.65;2.90;;;15.50;99.90;;;;;;4989476;28;20222;-63
2023/06/14 04:59:19;;;;;;;6.60;3.38;;;15.50;99.90;;;;;;4982713;28;20551;-63
2023/06/14 05:01:48;;;;;;;3.38;2.60;;;15.50;99.90;;;;;;4997548;28;20833;-63
2023/06/14 05:04:14;;;;;;;6.97;2.88;;;15.60;99.90;;;;;;4945847;28;20258;-63
2023/06/14 05:06:41;;;;;;;6.03;2.92;;;15.60;99.90;;;;;;5004069;28;20245;-62
2023/06/14 05:09:10;;;;;;;8.02;2.97;;;15.70;99.90;;;;;;4965674;28;20230;-62
2023/06/14 05:11:36;;;;;;;6.45;2.75;;;15.80;99.90;;;;;;4978971;28;20218;-62
2023/06/14 05:14:03;;;;;;;4.93;3.15;;;15.80;99.90;;;;;;4982931;28;20594;-63
2023/06/14 05:16:30;;;;;;;3.72;2.65;;;15.80;99.90;;;;;;4997615;28;20222;-63
2023/06/14 05:18:57;;;;;;;4.05;2.80;;;15.90;99.90;;;;;;4973213;28;20226;-62
2023/06/14 05:21:25;;;;;;;5.53;3.08;;;15.90;99.90;;;;;;5004797;28;20210;-63
2023/06/14 05:23:52;;;;;;;4.22;3.13;;;16.00;99.90;;;;;;4989945;28;20206;-63
2023/06/14 05:26:20;;;;;;;4.32;3.08;;;16.00;99.90;;;;;;4976504;28;20623;-63
2023/06/14 05:28:47;;;;;;;3.58;2.50;;;16.10;99.90;;;;;;4992610;28;20297;-63
2023/06/14 05:31:14;;;;;;;3.63;2.80;;;16.10;99.90;;;;;;4993616;28;21860;-63
2023/06/14 05:33:41;;;;;;;3.47;2.63;;;16.00;99.90;;;;;;4965243;28;20899;-63
2023/06/14 05:36:08;;;;;;;4.32;2.53;;;15.90;99.90;;;;;;5000078;28;20232;-62
2023/06/14 05:38:34;;;;;;;4.70;2.45;;;16.10;99.90;;;;;;4998070;28;20199;-62
2023/06/14 05:41:01;;;;;;;5.75;2.90;;;16.20;99.90;;;;;;4987956;28;20229;-63
2023/06/14 05:43:30;;;;;;;4.95;2.70;;;16.40;99.90;;;;;;5002838;28;20668;-62
2023/06/14 05:45:56;;;;;;;4.13;2.53;;;16.50;99.90;;;;;;4987543;28;20845;-62
2023/06/14 05:48:23;;;;;;;4.85;2.80;;;16.50;99.90;;;;;;4996979;28;20873;-62
2023/06/14 05:50:50;;;;;;;3.80;2.35;;;16.50;99.90;;;;;;4979404;28;20229;-63
2023/06/14 05:53:17;;;;;;;3.92;2.58;;;16.60;99.90;;;;;;5009441;28;20198;-62
2023/06/14 05:55:44;;;;;;;4.88;2.75;;;16.60;99.90;;;;;;4997168;28;20233;-63
2023/06/14 05:58:13;;;;;;;4.63;2.55;;;16.70;99.90;;;;;;5004691;28;20203;-62
2023/06/14 06:00:41;;;;;;;6.55;2.70;;;16.90;99.90;;;;;;4996677;28;20206;-63
2023/06/14 06:03:09;;;;;;;3.65;2.60;;;17.00;99.90;;;;;;4993301;28;20206;-63
2023/06/14 06:05:35;;;;;;;4.00;2.42;;;17.00;99.90;;;;;;4976535;28;20269;-63
2023/06/14 06:08:02;;;;;;;5.47;3.03;;;17.00;99.90;;;;;;5007505;28;20711;-63
2023/06/14 06:10:29;;;;;;;3.20;2.17;;;17.10;99.90;;;;;;4994622;28;20762;-63
2023/06/14 06:12:56;;;;;;;3.72;2.38;;;17.20;99.90;;;;;;5008272;28;20584;-63
2023/06/14 06:15:22;;;;;;;4.85;2.67;;;17.20;99.90;;;;;;4993768;28;21034;-63
2023/06/14 06:17:51;;;;;;;3.95;2.30;;;17.20;99.90;;;;;;5007848;28;20610;-63
2023/06/14 06:20:18;;;;;;;6.82;2.47;;;17.30;99.90;;;;;;4969054;28;20678;-63
2023/06/14 06:22:44;;;;;;;2.80;2.38;;;17.40;99.90;;;;;;5009805;28;20213;-63
2023/06/14 06:25:11;;;;;;;5.25;2.20;;;17.50;99.90;;;;;;4973925;28;20213;-63
2023/06/14 06:27:40;;;;;;;4.07;2.80;;;17.50;99.90;;;;;;5011318;28;20213;-63
2023/06/14 06:30:08;;;;;;;5.30;2.20;;;17.50;99.90;;;;;;4994605;28;20239;-63
2023/06/14 06:32:35;;;;;;;2.53;2.28;;;17.60;99.90;;;;;;5009262;28;21617;-63
2023/06/14 06:35:06;;;;;;;4.93;2.55;;;17.70;99.90;;;;;;4986249;28;20225;-63
2023/06/14 06:37:33;;;;;;;6.93;2.17;;;17.50;99.90;;;;;;5008978;28;20570;-62
2023/06/14 06:39:59;;;;;;;6.43;2.38;;;17.80;99.90;;;;;;5005499;28;20194;-62
2023/06/14 06:42:26;;;;;;;3.10;2.47;;;17.90;99.90;;;;;;4990180;28;20213;-63
2023/06/14 06:44:53;;;;;;;3.35;2.33;;;17.90;99.90;;;;;;5004858;28;20213;-63
2023/06/14 06:47:20;;;;;;;3.42;2.40;;;18.00;99.90;;;;;;5000901;28;20202;-63
2023/06/14 06:49:47;;;;;;;2.38;2.17;;;18.00;99.90;;;;;;5000952;28;20197;-63
2023/06/14 06:52:16;;;;;;;9.13;2.47;;;18.10;99.90;;;;;;4973478;28;20213;-63
2023/06/14 06:54:42;;;;;;;7.45;2.28;;;17.20;99.90;;;;;;5004190;28;20268;-63
2023/06/14 06:57:10;;;;;;;6.25;2.30;;;18.20;99.90;;;;;;4991111;28;20233;-63
2023/06/14 06:59:37;;;;;;;2.67;1.98;;;18.20;99.90;;;;;;5007829;28;20202;-63
2023/06/14 07:02:05;;;;;;;3.13;2.25;;;18.30;99.90;;;;;;4984468;28;20570;-63
2023/06/14 07:04:32;;;;;;;4.68;2.30;;;18.30;99.90;;;;;;5007671;28;20244;-63
2023/06/14 07:06:59;;;;;;;6.70;2.50;;;18.30;99.90;;;;;;4973147;28;20234;-63
2023/06/14 07:09:28;;;;;;;2.75;1.98;;;18.40;99.90;;;;;;5003129;28;20641;-63
2023/06/14 07:11:55;;;;;;;5.38;2.47;;;18.40;99.90;;;;;;5001847;28;20206;-63
2023/06/14 07:14:22;;;;;;;2.67;1.90;;;18.50;99.90;;;;;;4996502;28;20322;-63
2023/06/14 07:16:50;;;;;;;3.90;2.00;;;18.50;99.90;;;;;;5001712;28;20233;-63
2023/06/14 07:19:17;;;;;;;4.10;2.25;;;18.60;99.90;;;;;;4989969;28;20875;-63
2023/06/14 07:21:44;;;;;;;3.17;2.55;;;18.60;99.90;;;;;;4980108;28;20214;-63
2023/06/14 07:24:11;;;;;;;6.57;2.25;;;18.60;99.90;;;;;;5002293;28;20419;-63
2023/06/14 07:26:39;;;;;;;3.92;2.30;;;18.70;99.90;;;;;;5007672;28;20691;-63
2023/06/14 07:29:06;;;;;;;2.45;2.20;;;18.70;99.90;;;;;;4993489;28;20214;-63
2023/06/14 07:31:32;;;;;;;5.47;2.53;;;18.70;99.90;;;;;;5010184;28;20202;-63
2023/06/14 07:33:59;;;;;;;3.28;2.20;;;18.70;99.90;;;;;;4987689;28;20683;-63
2023/06/14 07:36:26;;;;;;;3.33;2.38;;;18.80;99.90;;;;;;5004990;28;20233;-63
2023/06/14 07:38:53;;;;;;;2.47;1.83;;;18.80;99.90;;;;;;4972586;28;20586;-63
2023/06/14 07:41:20;;;;;;;2.72;2.05;;;18.80;99.90;;;;;;5002692;28;20669;-63
2023/06/14 07:43:49;;;;;;;4.93;2.13;;;18.80;99.90;;;;;;5009831;28;20198;-63
2023/06/14 07:46:16;;;;;;;3.22;2.47;;;18.90;99.90;;;;;;5000903;28;20198;-63
2023/06/14 07:48:42;;;;;;;2.33;1.88;;;19.00;99.90;;;;;;4999279;28;20225;-63
2023/06/14 07:51:09;;;;;;;4.88;2.70;;;19.00;99.90;;;;;;4999755;28;20995;-63
2023/06/14 07:53:36;;;;;;;3.05;2.30;;;19.00;99.90;;;;;;4979762;28;20211;-63
2023/06/14 07:56:03;;;;;;;2.92;2.13;;;19.00;99.90;;;;;;5007583;28;20222;-63
2023/06/14 07:58:30;;;;;;;5.63;2.13;;;19.10;99.90;;;;;;5011826;28;21210;-63
2023/06/14 08:00:59;;;;;;;2.38;2.10;;;19.10;99.90;;;;;;5000570;28;20825;-63
2023/06/14 08:03:26;;;;;;;2.80;1.85;;;19.10;99.90;;;;;;5002139;28;20714;-63
2023/06/14 08:05:53;;;;;;;3.05;2.00;;;19.20;99.90;;;;;;5004973;28;20261;-63
2023/06/14 08:08:20;;;;;;;2.67;1.70;;;19.20;99.90;;;;;;5008246;28;20241;-63
2023/06/14 08:10:47;;;;;;;1.98;1.60;;;19.40;99.90;;;;;;4984474;28;20225;-63
2023/06/14 08:13:13;;;;;;;7.85;2.17;;;19.40;99.90;;;;;;4998539;28;20396;-63
2023/06/14 08:15:40;;;;;;;3.45;2.10;;;19.40;99.90;;;;;;5001502;28;20226;-63
2023/06/14 08:18:08;;;;;;;3.78;2.03;;;19.50;99.90;;;;;;5000577;28;20431;-63
2023/06/14 08:20:36;;;;;;;2.50;2.20;;;19.60;99.90;;;;;;5000221;28;20199;-63
2023/06/14 08:23:03;;;;;;;4.90;1.83;;;19.70;99.90;;;;;;5007704;28;20202;-63
2023/06/14 08:25:31;;;;;;;2.55;1.80;;;19.60;99.90;;;;;;4982266;28;21073;-63
2023/06/14 08:27:57;;;;;;;5.18;2.17;;;19.60;99.90;;;;;;4998484;28;20198;-63
2023/06/14 08:30:24;;;;;;;4.10;1.73;;;19.50;99.90;;;;;;4999228;28;20619;-63
2023/06/14 08:32:51;;;;;;;2.35;2.15;;;20.20;99.90;;;;;;5006135;28;20204;-62
2023/06/14 08:35:20;;;;;;;3.38;2.08;;;19.50;99.90;;;;;;4998688;28;20205;-63
2023/06/14 08:37:46;;;;;;;3.17;1.73;;;19.70;99.90;;;;;;5009704;28;20226;-63
2023/06/14 08:40:21;;;;;;;3.38;2.10;;;19.80;99.90;;;;;;4976575;28;20198;-63
2023/06/14 08:42:51;;;;;;;6.13;1.80;;;19.80;99.90;;;;;;5003907;28;20283;-63
2023/06/14 08:45:18;;;;;;;2.75;1.83;;;19.80;99.90;;;;;;4996364;28;20231;-63
2023/06/14 08:47:46;;;;;;;3.50;1.70;;;19.70;99.90;;;;;;5011093;28;20206;-63
2023/06/14 08:50:14;;;;;;;3.35;1.98;;;19.70;99.90;;;;;;4998615;28;20965;-63
2023/06/14 08:52:49;;;;;;;2.55;1.45;;;19.80;99.90;;;;;;5008884;28;20260;-63
2023/06/14 08:55:17;;;;;;;1.55;1.42;;;19.90;99.90;;;;;;4975124;28;20206;-63
2023/06/14 08:57:45;;;;;;;2.95;1.48;;;19.90;99.90;;;;;;5001685;28;20290;-63
2023/06/14 09:00:14;;;;;;;1.70;1.42;;;20.00;99.90;;;;;;5006070;28;20996;-63
2023/06/14 09:02:43;;;;;;;4.10;2.10;;;20.00;99.90;;;;;;4997335;28;20292;-64
2023/06/14 09:05:10;;;;;;;5.65;1.85;;;20.00;99.90;;;;;;4990324;28;20325;-63
2023/06/14 09:07:38;;;;;;;3.38;1.70;;;19.90;99.90;;;;;;5010076;28;20836;-63
2023/06/14 09:10:11;;;;;;;1.90;1.58;;;20.10;99.90;;;;;;4975069;28;21223;-63
2023/06/14 09:12:39;;;;;;;1.55;1.45;;;20.10;99.90;;;;;;5009657;28;20210;-63
2023/06/14 09:15:08;;;;;;;3.53;2.20;;;20.20;99.90;;;;;;4997632;28;20224;-63
2023/06/14 09:17:36;;;;;;;2.67;1.73;;;20.20;99.90;;;;;;4994072;28;20240;-63
2023/06/14 09:20:06;;;;;;;11.45;1.90;;;20.20;99.90;;;;;;5011138;28;20248;-63
2023/06/14 09:22:33;;;;;;;5.55;1.98;;;20.30;99.90;;;;;;4999566;28;20206;-63
2023/06/14 09:25:00;;;;;;;2.83;2.00;;;20.40;99.90;;;;;;5005624;28;20194;-63
2023/06/14 09:27:29;;;;;;;1.63;1.52;;;20.40;99.90;;;;;;4978523;28;20611;-64
2023/06/14 09:29:56;;;;;;;2.17;1.80;;;20.50;99.90;;;;;;5007444;28;20206;-63
2023/06/14 09:32:23;;;;;;;2.20;1.75;;;20.50;99.90;;;;;;5009564;28;20198;-63
2023/06/14 09:34:50;;;;;;;2.30;1.80;;;20.60;99.90;;;;;;4997126;28;20203;-63
2023/06/14 09:37:29;;;;;;;8.57;1.90;;;20.60;99.90;;;;;;5001579;28;20512;-63
2023/06/14 09:39:56;;;;;;;2.55;1.92;;;20.60;99.90;;;;;;5009392;28;20198;-63
2023/06/14 09:42:25;;;;;;;1.73;1.63;;;20.70;99.90;;;;;;4982311;28;20346;-63
2023/06/14 09:44:55;;;;;;;1.80;1.65;;;20.70;99.90;;;;;;5009194;28;20197;-63
2023/06/14 09:47:23;;;;;;;5.03;1.90;;;20.60;99.90;;;;;;5005461;28;20198;-63
2023/06/14 09:49:50;;;;;;;1.75;1.65;;;20.80;99.90;;;;;;4996723;28;20202;-63
2023/06/14 09:52:19;;;;;;;2.03;1.83;;;20.80;99.90;;;;;;4995845;28;21231;-63
2023/06/14 09:54:48;;;;;;;2.63;1.63;;;20.90;99.90;;;;;;5010850;28;20194;-63
2023/06/14 09:57:17;;;;;;;3.35;1.70;;;20.90;99.90;;;;;;4976377;28;20773;-63
2023/06/14 09:59:45;;;;;;;3.92;2.00;;;21.00;99.90;;;;;;5006454;28;20293;-63
2023/06/14 10:02:22;;;;;;;1.90;1.70;;;20.80;99.90;;;;;;4997312;28;20202;-63
2023/06/14 10:04:57;;;;;;;2.30;2.00;;;20.90;99.90;;;;;;4997830;28;20193;-63
2023/06/14 10:07:26;;;;;;;3.78;2.05;;;20.90;99.90;;;;;;5007988;28;20233;-63
2023/06/14 10:09:54;;;;;;;2.85;2.10;;;21.00;99.90;;;;;;4998035;28;20770;-63
2023/06/14 10:12:22;;;;;;;3.10;1.92;;;21.30;99.90;;;;;;4980928;28;20301;-63
2023/06/14 10:14:53;;;;;;;5.30;2.28;;;21.40;99.90;;;;;;5011981;28;20213;-63
2023/06/14 10:17:28;;;;;;;2.70;2.20;;;21.40;99.90;;;;;;5005228;28;20427;-63
2023/06/14 10:20:11;;;;;;;5.43;2.05;;;21.60;99.90;;;;;;4998991;28;20202;-63
2023/06/14 10:22:43;;;;;;;3.83;3.03;;;21.60;99.90;;;;;;5009300;28;20213;-63
2023/06/14 10:25:26;;;;;;;2.97;1.90;;;21.60;99.90;;;;;;4994672;28;20674;-63
2023/06/14 10:27:53;;;;;;;8.25;2.40;;;21.70;99.90;;;;;;4978200;28;20212;-63
2023/06/14 10:30:26;;;;;;;2.55;2.05;;;21.70;99.90;;;;;;5010907;28;20195;-63
2023/06/14 10:33:08;;;;;;;3.38;2.10;;;21.70;99.90;;;;;;5000818;28;21075;-63
2023/06/14 10:35:35;;;;;;;3.78;1.90;;;21.70;99.90;;;;;;4996131;28;20672;-63
2023/06/14 10:38:09;;;;;;;8.45;2.17;;;21.80;99.90;;;;;;5007495;28;20230;-63
2023/06/14 10:40:37;;;;;;;2.42;2.15;;;21.70;99.90;;;;;;4993869;28;20205;-63
2023/06/14 10:43:24;;;;;;;2.38;2.17;;;21.80;99.90;;;;;;5006652;28;20221;-63
2023/06/14 10:46:14;;;;;;;3.40;2.30;;;21.80;99.90;;;;;;5012250;28;20206;-63
2023/06/14 10:48:44;;;;;;;4.07;2.10;;;21.70;99.90;;;;;;5000948;28;20403;-63
2023/06/14 10:51:20;;;;;;;12.95;2.45;;;21.70;99.90;;;;;;4995672;28;20212;-64
2023/06/14 10:53:47;;;;;;;4.22;2.10;;;21.80;99.90;;;;;;5005381;28;20201;-64
2023/06/14 10:56:28;;;;;;;2.50;2.30;;;21.80;99.90;;;;;;4995617;28;20202;-63
2023/06/14 10:58:56;;;;;;;3.60;2.00;;;22.00;99.90;;;;;;5002735;28;20202;-64
2023/06/14 11:01:36;;;;;;;3.42;2.25;;;22.00;99.90;;;;;;4956870;28;20759;-63
2023/06/14 11:04:10;;;;;;;2.42;2.03;;;22.00;99.90;;;;;;4997850;28;20273;-63
2023/06/14 11:06:48;;;;;;;3.33;2.20;;;21.90;99.90;;;;;;4976895;28;20718;-64
2023/06/14 11:09:46;;;;;;;4.63;2.00;;;21.70;99.90;;;;;;5003637;28;20275;-63
2023/06/14 11:12:14;;;;;;;2.63;2.15;;;21.70;99.90;;;;;;5004131;28;20236;-64
2023/06/14 11:14:41;;;;;;;9.93;2.35;;;21.60;99.90;;;;;;4970134;28;20244;-64
2023/06/14 11:17:07;;;;;;;3.05;2.03;;;21.60;99.90;;;;;;4996965;28;20299;-63
2023/06/14 11:19:36;;;;;;;2.47;2.17;;;21.60;99.90;;;;;;5004670;28;20703;-64
2023/06/14 11:22:02;;;;;;;3.08;2.33;;;21.70;99.90;;;;;;4998487;28;20581;-63
2023/06/14 11:24:30;;;;;;;2.58;2.20;;;;;;;;;;4987643;28;20225;-63
2023/06/14 11:26:57;;;;;;;2.15;1.95;;;21.90;99.90;;;;;;5000411;28;20222;-64
2023/06/14 11:29:24;;;;;;;5.05;2.17;;;21.80;99.90;;;;;;5005027;28;20226;-64
2023/06/14 11:31:51;;;;;;;2.33;2.03;;;21.70;99.90;;;;;;4977965;28;20635;-63
2023/06/14 11:34:19;;;;;;;6.25;2.30;;;21.70;99.90;;;;;;5000836;28;20222;-63
2023/06/14 11:36:47;;;;;;;7.75;2.08;;;22.10;99.90;;;;;;4994160;28;20535;-63
2023/06/14 11:39:14;;;;;;;6.60;2.40;;;22.10;99.90;;;;;;4996971;28;20781;-64
2023/06/14 11:41:42;;;;;;;4.20;2.28;;;22.30;99.90;;;;;;4995515;28;20232;-63
2023/06/14 11:44:10;;;;;;;3.35;2.70;;;22.20;99.90;;;;;;5009954;28;20212;-63
2023/06/14 11:46:36;;;;;;;3.72;2.47;;;22.20;99.90;;;;;;4972693;28;20599;-63
2023/06/14 11:49:04;;;;;;;4.00;2.45;;;22.40;99.90;;;;;;5003146;28;20202;-64
2023/06/14 11:51:32;;;;;;;4.88;2.10;;;22.50;99.90;;;;;;5010435;28;20202;-64
2023/06/14 11:54:00;;;;;;;2.20;2.00;;;22.50;99.90;;;;;;4980366;28;20274;-64
2023/06/14 11:56:27;;;;;;;2.40;2.20;;;22.80;99.90;;;;;;4997083;28;20786;-64
2023/06/14 11:58:56;;;;;;;3.30;2.40;;;22.70;99.90;;;;;;5002556;28;20236;-64
2023/06/14 12:01:23;;;;;;;3.72;2.15;;;22.50;99.90;;;;;;5008962;28;20202;-64
2023/06/14 12:03:50;;;;;;;3.95;2.30;;;22.20;99.90;;;;;;4961997;28;20213;-64
2023/06/14 12:06:27;;;;;;;5.75;2.60;;;22.20;99.90;;;;;;5008925;28;20452;-64
2023/06/14 12:08:56;;;;;;;2.80;2.20;;;22.10;99.90;;;;;;4987633;28;20455;-64
2023/06/14 12:11:28;;;;;;;5.88;2.58;;;22.20;99.90;;;;;;4999008;28;20206;-63
2023/06/14 12:13:57;;;;;;;2.97;2.17;;;22.20;99.90;;;;;;5009393;28;20667;-63
2023/06/14 12:16:32;;;;;;;2.60;2.40;;;22.20;99.90;;;;;;5010463;28;20194;-63
2023/06/14 12:19:02;;;;;;;9.57;2.30;;;22.30;99.90;;;;;;4971383;28;20225;-62
2023/06/14 12:21:29;;;;;;;3.53;2.20;;;22.20;99.90;;;;;;5001632;28;20194;-63
2023/06/14 12:23:56;;;;;;;4.28;2.30;;;22.20;99.90;;;;;;4991001;28;20234;-63
2023/06/14 12:26:26;;;;;;;3.40;2.45;;;22.10;99.90;;;;;;4999037;28;20206;-63
2023/06/14 12:28:53;;;;;;;6.97;2.03;;;22.10;99.90;;;;;;5010854;28;20209;-62
2023/06/14 12:31:20;;;;;;;3.15;2.35;;;22.10;99.90;;;;;;5005607;28;20596;-63
2023/06/14 12:33:48;;;;;;;2.50;2.17;;;22.30;99.90;;;;;;4980181;28;20210;-62
2023/06/14 12:36:16;;;;;;;3.17;2.80;;;22.40;99.90;;;;;;5011318;28;20770;-63
2023/06/14 12:38:43;;;;;;;4.22;2.20;;;22.50;99.90;;;;;;4999467;28;21295;-62
2023/06/14 12:41:10;;;;;;;4.97;2.08;;;22.50;99.90;;;;;;4970668;28;20236;-63
2023/06/14 12:43:38;;;;;;;7.45;2.33;;;22.50;99.90;;;;;;4990937;28;20240;-63
2023/06/14 12:46:05;;;;;;;2.17;1.98;;;22.40;99.90;;;;;;4977137;28;21294;-63
2023/06/14 12:48:34;;;;;;;6.05;2.35;;;22.40;99.90;;;;;;4978560;28;20208;-63
2023/06/14 12:51:00;;;;;;;4.45;2.42;;;22.30;99.90;;;;;;5006568;28;20956;-63
2023/06/14 12:53:27;;;;;;;5.60;2.40;;;22.40;99.90;;;;;;5004099;28;20198;-63